Joaquín Méndez

Главный скаут - Huracán
10 Сен 2028
Воскресенье
Продолжить

Характер

Адаптивность (10) Амбиции (18) Скандальность (11) Верность (16) Стрессоустойчивость (9) Профессионализм (18) Благородство (7) Темперамент (15)

Профиль

Стиль управления Демократичный
Лицензия Континентальная C
Решительность 10
Управление людьми 9
Мотивация 8
Дисциплина 10
Удовлетворённость
100%
Усталость
0%
Должность Главный скаут
Зарплата 97.5K в нед.
Контракт 14.03.2029

Производительность

Поведение Хорошее
Эффективность тренировок
36%
Развитие игроков
45%
Профилактика травм
45%
Тактическая реализация
40%

Недавние события

Участвовал в селекционном совещании только что
Рекомендовал трансферную цель только что
Рекомендовал трансферную цель только что
Участвовал в селекционном совещании 7 дн. назад
Рекомендовал трансферную цель 7 дн. назад
Рекомендовал трансферную цель 7 дн. назад
Рекомендовал трансферную цель 7 дн. назад
Рекомендовал трансферную цель 7 дн. назад

Текущее наблюдение

277
Игрок Клуб Статус Способность Уверенность Наблюдений Последнее наблюдение Последний голос
Thomas Oliveri Defensa y Justicia Активный 100 / 103 62% 1 03.07.2028 За
Facundo Báez Argentinos Juniors Переговоры 111 / 110 62% 1 19.06.2028 За
Richard Koné Queens Park Rangers Активный 131 / 132 40% 2 12.06.2028 -
Taiwo Awoniyi Middlesbrough Активный 133 / 139 40% 1 12.06.2028 -
Henrique Carmo Sochi Активный 129 / 127 40% 2 05.06.2028 -
Augusto Bando Ascoli Активный 112 / 108 40% 2 31.05.2028 -
Musa Danjuma Umraniyespor Активный 105 / 92 40% 1 31.05.2028 -
Sindre Walle Egeli Udinese Активный 138 / 139 40% 6 30.05.2028 -
Eli Junior Kroupi Bournemouth Активный 149 / 144 40% 3 30.05.2028 -
Ryan McAidoo Oldham Athletic Активный 119 / 126 40% 5 29.05.2028 -
Amin Nabizada Exeter City Активный 120 / 119 40% 1 29.05.2028 -
Igor Tyjon Barrow AFC Активный 124 / 129 40% 3 24.05.2028 -
Rio Ngumoha Plymouth Argyle Активный 147 / 139 40% 2 24.05.2028 -
Leo Pecover Swindon Town Активный 109 / 118 40% 1 23.05.2028 -
Trey Nyoni Rotherham United Активный 129 / 140 40% 3 22.05.2028 -
André Miranda Porto Активный 123 / 131 40% 2 22.05.2028 -
Gabriel Mec Feirense Активный 141 / 122 40% 2 20.05.2028 -
Shea Lacey Crystal Palace Активный 142 / 142 40% 1 17.05.2028 -
Giovanni Cantizano Fulham Активный 110 / 127 40% 2 16.05.2028 -
Kerim Alajbegović Modena Активный 124 / 127 40% 2 13.05.2028 -
İsak Vural Audace Cerignola Активный 114 / 119 40% 1 08.05.2028 -
Luca Williams-Barnett Walsall Активный 110 / 121 40% 1 04.05.2028 -
Jake Evans Crewe Alexandra Активный 120 / 121 40% 1 03.05.2028 -
Tyler Fletcher Rotherham United Активный 111 / 120 40% 4 02.05.2028 -
Omar Khedr Gillingham Активный 127 / 114 40% 1 02.05.2028 -
Josh Nichols Oldham Athletic Активный 108 / 133 40% 9 01.05.2028 -
Giovanni Leoni Lincoln City Активный 143 / 146 40% 1 26.04.2028 -
Andrea Cogoni Cosenza Активный 98 / 103 40% 1 26.04.2028 -
Daniel Banjaqui Benfica Активный 119 / 128 40% 4 24.04.2028 -
Kiani Inge Groningen Активный 109 / 116 40% 1 24.04.2028 -
Jorthy Mokio ADO Den Haag Активный 123 / 131 40% 3 20.04.2028 -
Kelian Le Pironnec Mirandés Активный 86 / 109 40% 1 20.04.2028 -
Andrea Bertoncini Triestina Активный 105 / 105 40% 1 19.04.2028 -
Miguel Figueiredo Benfica Активный 113 / 138 40% 2 18.04.2028 -
Makar Vysochenko Spartak Moscow Активный 94 / 92 40% 2 16.04.2028 -
Eko Solomon Leixões Активный 77 / 79 40% 2 13.04.2028 -
Andrey Ivlev Nizhniy Novgorod Активный 113 / 130 40% 1 09.04.2028 -
Claudio Martey Pianese Активный 83 / 83 40% 1 08.04.2028 -
Matvey Bardachev Zenit Активный 109 / 110 40% 1 06.04.2028 -
Gustavo Albarracín Alavés Активный 130 / 114 40% 1 05.04.2028 -
Thiago Silvero Vélez Активный 131 / 124 40% 1 05.04.2028 -
Olivier Leroux Mouscron Активный 90 / 104 40% 2 20.03.2028 -
Victor Hernandez Santa Fe Активный 114 / 118 40% 1 20.03.2028 -
Josh Acheampong Everton Активный 136 / 157 40% 4 18.03.2028 -
Ayden Heaven Portsmouth Активный 144 / 143 40% 3 16.03.2028 -
Martim Cunha Porto Активный 100 / 103 40% 1 13.03.2028 -
Honest Ahanor Atalanta Активный 126 / 151 40% 2 17.02.2028 -
Christos Mouzakitis Hull City Активный 126 / 136 40% 2 12.02.2028 -
Ruben Ramos LA Galaxy Активный 91 / 99 40% 2 11.02.2028 -
Ben Broggio Mansfield Town Активный 120 / 102 40% 3 10.02.2028 -
Gabe Forsyth Colchester United Активный 110 / 128 40% 1 09.02.2028 -
Babis Kostoulas Oxford United Активный 134 / 147 40% 1 08.02.2028 -
Benjamín Rodríguez Albion Активный 79 / 97 40% 2 06.02.2028 -
Francisco Marchant Colo-Colo Активный 91 / 108 40% 2 06.02.2028 -
Matvey Ivanov Zenit Активный 88 / 92 40% 1 05.02.2028 -
Ibrahim Fullah Charlton Athletic Активный 133 / 143 40% 1 02.02.2028 -
Lander Astiazarán Real Sociedad Активный 121 / 110 40% 2 31.01.2028 -
Ryan Kavuma-McQueen Accrington Stanley Активный 124 / 132 40% 1 28.01.2028 -
Pedro Baltika Активный 127 / 131 40% 1 26.01.2028 -
Giovanni Baroni Talleres Активный 110 / 126 40% 2 25.01.2028 -
Romelle Donovan Brentford Активный 139 / 142 40% 1 20.01.2028 -
Alex Verón Vélez Активный 115 / 125 40% 1 19.01.2028 -
Bazoumana Touré Newcastle United Активный 135 / 154 40% 1 19.01.2028 -
Juan Camilo Córdoba Deportivo Pereira Активный 93 / 96 40% 1 13.01.2028 -
Mateus Mané Burnley Активный 142 / 141 40% 1 11.01.2028 -
Valentino Acuña Newell's Old Boys Активный 119 / 122 40% 1 09.01.2028 -
Lewis Orford Crewe Alexandra Активный 98 / 114 40% 1 05.01.2028 -
Nestory Irankunda Watford Активный 113 / 125 40% 1 03.01.2028 -
Nicolás Ferreira Artigas Активный 88 / 88 40% 1 03.01.2028 -
Joaquín Bigo Tristán Suárez Активный 97 / 98 62% 1 01.12.2027 За
Ignacio Fernández Boston River Активный 99 / 98 40% 1 01.12.2027 -
Kevin Zenón Boca Juniors Активный 135 / 131 40% 1 30.11.2027 -
Evgeny Latyshonok Nizhniy Novgorod Активный 137 / 131 40% 3 28.11.2027 -
Alexei Rojas Fedorushchenko Barrow AFC Активный 133 / 125 40% 1 28.11.2027 -
Jack Walton Preston Активный 135 / 134 40% 1 23.11.2027 -
Zion Suzuki Aston Villa Активный 156 / 144 40% 1 21.11.2027 -
Carl Rushworth Aston Villa Активный 155 / 152 40% 1 21.11.2027 -
Alex Meret Napoli Активный 149 / 166 40% 7 19.11.2027 -
Radek Vítek Middlesbrough Активный 149 / 139 40% 1 19.11.2027 -
Brandon Austin Brighton Активный 124 / 148 40% 1 18.11.2027 -
Vladan Kovačević Norwich City Активный 132 / 126 40% 2 16.11.2027 -
Lukáš Horníček Burnley Активный 158 / 155 40% 2 15.11.2027 -
Oliver Dovin Coventry City Активный 131 / 137 40% 1 15.11.2027 -
Caoimhin Kelleher Brentford Активный 169 / 169 40% 1 12.11.2027 -
Ezequiel Centurión River Plate Активный 128 / 133 40% 2 09.11.2027 -
Josh Keeley Luton Town Активный 126 / 135 40% 1 09.11.2027 -
Emiliano González Almagro Активный 109 / 114 40% 3 07.11.2027 -
Elia Caprile Cagliari Активный 141 / 140 40% 3 07.11.2027 -
Mads Hermansen West Ham United Активный 138 / 134 40% 2 06.11.2027 -
Anthony Patterson Wrexham Активный 151 / 139 40% 1 06.11.2027 -
James Trafford Leeds United Активный 145 / 139 40% 1 05.11.2027 -
Justin Bijlow Atalanta Активный 147 / 146 40% 1 29.10.2027 -
Vanja Milinković-Savić Atalanta Активный 163 / 140 40% 2 28.10.2027 -
Lucas Chevalier AC Milan Активный 174 / 174 40% 1 28.10.2027 -
Cristian Rivero Real Sociedad Активный 132 / 137 40% 7 26.10.2027 -
Esteban Glellel Quilmes Активный 110 / 110 40% 2 22.10.2027 -
Ilja Pomazun Spartak Moscow Активный 111 / 120 40% 1 22.10.2027 -
Temirlan Anarbekov Kairat Активный 117 / 108 40% 2 18.10.2027 -
Federico Losas Chacarita Juniors Активный 109 / 120 40% 3 16.10.2027 -
Abduvohid Ne'matov Nasaf Активный 126 / 111 40% 4 15.10.2027 -
Luciano Jachfe Nueva Chicago Активный 111 / 125 40% 3 14.10.2027 -
Ignacio Chicco Aldosivi Активный 114 / 113 40% 3 13.10.2027 -
Riccardo Gagno Vicenza Активный 114 / 130 40% 1 12.10.2027 -
Nicolás Sumavil Platense Активный 122 / 113 40% 2 08.10.2027 -
Mile Svilar AS Roma Активный 163 / 179 40% 1 04.10.2027 -
Jonathan Klinsmann Cesena Активный 129 / 119 40% 1 03.10.2027 -
Anton Mitryushkin Lokomotiv Moscow Активный 109 / 129 40% 2 01.10.2027 -
Renato Solís Sporting Cristal Активный 136 / 131 40% 2 28.09.2027 -
Leandro Brey Boca Juniors Активный 123 / 137 40% 2 23.09.2027 -
Emil Audero Como Активный 140 / 147 40% 2 19.09.2027 -
Christos Mandas Lazio Активный 149 / 155 40% 4 07.09.2027 -
Maxim Borisko CSKA Moscow Активный 140 / 134 40% 1 06.09.2027 -
Lautaro Morales Lanús Активный 121 / 120 40% 1 30.08.2027 -
Victor Aznar Sevilla Активный 122 / 128 40% 1 29.08.2027 -
Federico Ravaglia Bologna Активный 155 / 144 40% 1 17.08.2027 -
Matías Tagliamonte Racing Club Активный 110 / 127 40% 1 15.08.2027 -
Rustam Yatimov Rostov Активный 105 / 108 40% 1 12.08.2027 -
Adrian Šemper Al-Fateh Активный 125 / 126 40% 1 08.08.2027 -
Martin Zlomislić Qarabag Активный 135 / 110 40% 1 05.08.2027 -
Luis Ingolotti Atlético Tucumán Активный 137 / 117 40% 1 03.08.2027 -
Josep Martínez Inter Активный 132 / 138 40% 1 02.08.2027 -
Leandro Martins Benfica Активный 83 / 101 40% 1 28.06.2027 -
Bernardo Lima Porto Активный 98 / 110 40% 1 15.06.2027 -
Gonçalo Oliveira Benfica Активный 113 / 108 40% 1 03.06.2027 -
Luiz Henrique AS Roma Активный 142 / 143 68% 1 01.06.2027 За
Billy Gilmour Napoli Активный 144 / 140 40% 1 31.05.2027 -
Matías Soulé AS Roma Активный 158 / 160 40% 2 28.05.2027 -
Emanuele Scipioni Monopoli Активный 110 / 117 40% 1 28.05.2027 -
Mehdi Dorval Catanzaro Активный 130 / 137 40% 1 24.05.2027 -
Giorgi Tsitaishvili Rayo Vallecano Активный 137 / 127 40% 1 24.05.2027 -
Arthur Atta Fiorentina Активный 154 / 145 40% 2 23.05.2027 -
Mikael Egill Ellertsson Genoa Активный 145 / 125 40% 1 19.05.2027 Нужно больше данных
Bongani Zungu Ajax Cape Town Активный 113 / 117 40% 3 18.05.2027 -
Giorgos Koutsias Famalicao Активный 114 / 111 40% 1 17.05.2027 -
Mitchel Bakker Modena Активный 145 / 133 40% 2 16.05.2027 -
Cher Ndour Fiorentina Активный 130 / 144 40% 1 14.05.2027 -
Giacomo Raspadori Atalanta Активный 149 / 149 40% 2 12.05.2027 -
Giorgi Kvernadze Frosinone Активный 132 / 120 40% 1 12.05.2027 -
Nuno Tavares Lazio Активный 156 / 137 40% 1 11.05.2027 -
Raoul Bellanova Atalanta Активный 141 / 158 40% 1 11.05.2027 -
John Yeboah Venezia Активный 119 / 132 40% 1 10.05.2027 -
Diego Gómez Brighton Активный 132 / 149 40% 2 08.05.2027 -
Adrián Bernabé Parma Активный 127 / 146 40% 1 08.05.2027 -
Lucas Da Cunha Como Активный 143 / 149 40% 2 07.05.2027 -
Pontus Almqvist Parma Активный 138 / 136 40% 2 07.05.2027 -
Nicolò Zaniolo Udinese Активный 150 / 146 40% 2 05.05.2027 -
Job Ochieng Real Sociedad Активный 109 / 105 40% 2 26.04.2027 -
Stiven Shpendi Empoli Активный 132 / 134 40% 1 26.04.2027 -
Camillo Tavernelli Arezzo Активный 129 / 109 40% 2 22.04.2027 -
Martin Baturina Como Активный 130 / 149 40% 1 22.04.2027 -
Ekain Orobengoa Real Sociedad Активный 91 / 115 40% 1 22.04.2027 -
Antoine Bernede Hellas Verona Активный 131 / 114 40% 1 16.04.2027 -
Marquinhos Spartak Moscow Активный 120 / 132 40% 3 13.04.2027 -
Savinho Tottenham Активный 164 / 157 40% 1 11.04.2027 -
Tommaso Pobega Bologna Активный 129 / 132 40% 1 09.04.2027 -
Hannibal Burnley Активный 127 / 116 40% 1 04.04.2027 -
Unai Gómez Udinese Активный 147 / 134 40% 2 03.04.2027 -
Mohau Nkota Al-Ettifaq Активный 122 / 132 40% 1 30.03.2027 -
Joe Gelhardt Hull City Активный 119 / 141 40% 5 26.03.2027 -
Chemsdine Talbi Sunderland Активный 137 / 159 40% 4 26.03.2027 -
Juanlu Bournemouth Активный 157 / 158 40% 1 24.03.2027 -
Marcelo Allende Mamelodi Sundowns Активный 124 / 125 40% 6 23.03.2027 -
Manor Solomon West Ham United Активный 150 / 149 40% 3 22.03.2027 -
Jack Rudoni Coventry City Активный 119 / 134 40% 2 22.03.2027 -
Alex Scott Bournemouth Активный 162 / 155 40% 1 21.03.2027 -
Wilson Isidor Sunderland Активный 129 / 129 40% 3 20.03.2027 -
Óscar Mingueza Crystal Palace Активный 147 / 155 40% 1 19.03.2027 -
Wandile Duba ASO Chlef Активный 113 / 108 40% 1 19.03.2027 -
Jacob Ramsey Newcastle United Активный 159 / 142 40% 1 17.03.2027 -
Oswin Appollis Orlando Pirates Активный 109 / 118 40% 1 13.03.2027 -
Osher Davida Maccabi Tel Aviv Активный 112 / 129 40% 1 09.03.2027 -
Yehor Yarmoliuk Brentford Активный 133 / 151 40% 1 09.03.2027 -
Marcel Ruiz Crystal Palace Активный 135 / 134 40% 2 07.03.2027 -
Malik Mothersille Stockport County Активный 102 / 118 40% 2 06.03.2027 -
Nazar Voloshyn Dynamo Kyiv Активный 142 / 137 40% 1 03.03.2027 -
James Garner Everton Активный 136 / 159 40% 1 03.03.2027 -
Yeremy Pino Crystal Palace Активный 154 / 137 40% 1 01.03.2027 -
Oston O'runov Persepolis Активный 130 / 110 40% 2 27.02.2027 -
Ivo Mammini Beitar Jerusalem Активный 125 / 119 40% 2 26.02.2027 -
Nicolas Jackson Aston Villa Активный 158 / 146 40% 2 26.02.2027 -
Yousef Salech Cardiff City Активный 123 / 128 40% 2 25.02.2027 -
Lorent Tolaj Plymouth Argyle Активный 111 / 123 40% 1 25.02.2027 -
Matt O'Riley Brighton Активный 150 / 140 40% 1 19.02.2027 -
Amine Adli Bournemouth Активный 134 / 140 40% 1 18.02.2027 -
Adam Wharton Crystal Palace Активный 144 / 145 40% 1 18.02.2027 -
Brian Brobbey Sunderland Активный 149 / 146 40% 1 18.02.2027 -
Derensili Sanches Fernandes Huddersfield Town Активный 118 / 128 40% 2 12.02.2027 -
Boubacar Kamara Aston Villa Активный 163 / 162 40% 1 11.02.2027 -
Kevin Fulham Активный 152 / 143 40% 1 07.02.2027 -
Fábio Carvalho Brentford Активный 128 / 131 40% 1 04.02.2027 -
Jacques Siwe Rubin Активный 125 / 102 40% 2 03.02.2027 -
Etiosa Ighodaro Kaizer Chiefs Активный 119 / 113 40% 1 03.02.2027 -
Majid Moharrami Rah Ahan Активный 113 / 101 40% 1 02.02.2027 -
Thiago Brentford Активный 132 / 144 40% 1 01.02.2027 -
Ilyas Ansah Hull City Активный 129 / 126 40% 2 23.01.2027 -
Vyacheslav Grulev Nizhniy Novgorod Активный 112 / 100 40% 1 23.01.2027 -
Darlin Yongwa Norwich City Активный 110 / 121 40% 1 19.01.2027 -
Petar Stanić Ludogorets Активный 143 / 143 40% 2 18.01.2027 -
Scott Twine Bristol City Активный 129 / 109 40% 1 18.01.2027 -
Ali Ahmed Norwich City Активный 112 / 132 40% 1 13.01.2027 -
Alex Robertson Cardiff City Активный 117 / 108 40% 1 11.01.2027 -
Andre Brooks Sheffield United Активный 129 / 114 40% 2 08.01.2027 -
Bobby Clark Derby County Активный 123 / 128 40% 1 08.01.2027 -
André Wolverhampton Активный 158 / 139 40% 1 07.01.2027 -
Habib Diarra Sunderland Активный 154 / 156 40% 1 07.01.2027 -
Tyrese Campbell Sheffield United Активный 122 / 116 40% 2 05.01.2027 -
Lorenzo Colombo Genoa Активный 147 / 141 40% 1 05.01.2027 -
Welington Southampton Активный 118 / 135 40% 1 05.01.2027 -
Sam Greenwood Bristol City Активный 112 / 106 40% 1 04.01.2027 -
Esequiel Barco Spartak Moscow Активный 138 / 151 40% 1 29.12.2026 -
Armstrong Oko-Flex Levski Активный 107 / 133 40% 1 29.12.2026 -
Ola Brynhildsen Rapid Wien Активный 132 / 127 40% 1 01.12.2026 -
Ianis Hagi Alanyaspor Активный 123 / 120 40% 1 22.11.2026 -
Luis Caicedo Spartak 1918 Активный 99 / 100 40% 1 20.11.2026 -
Efraín Álvarez Aston Villa Активный 136 / 122 40% 1 18.11.2026 -
Ferland Mendy Real Madrid Активный 148 / 134 40% 2 17.11.2026 -
Edu Expósito Espanyol Активный 131 / 145 40% 3 17.11.2026 Наблюдать
Oli McBurnie Hull City Активный 131 / 139 40% 2 17.11.2026 -
Martín Ojeda Orlando City Активный 137 / 124 40% 3 16.11.2026 -
Jason Knight Bristol City Активный 117 / 115 40% 1 15.11.2026 -
Jens Petter Hauge Bodo/Glimt Активный 136 / 153 40% 1 14.11.2026 -
Fiete Arp OB Активный 119 / 123 40% 3 13.11.2026 -
Matías Laurino Gornik Leczna Активный 84 / 94 40% 1 13.11.2026 -
Dwight McNeil Crystal Palace Активный 136 / 149 40% 2 10.11.2026 -
Ignacio Russo Tigre Активный 124 / 125 40% 1 07.11.2026 -
Marezi Portsmouth Активный 108 / 137 40% 1 07.11.2026 -
Hwang Hee-Chan Wolverhampton Активный 123 / 132 40% 2 05.11.2026 -
Talles Magno New York City Активный 120 / 119 40% 1 05.11.2026 -
Tatsuhiro Sakamoto Coventry City Активный 126 / 134 40% 1 03.11.2026 -
Leo Ceara Kashima Antlers Активный 151 / 148 40% 4 01.11.2026 -
Tiago Palacios Estudiantes Активный 129 / 134 40% 2 29.10.2026 -
Kévin Denkey FC Cincinnati Активный 131 / 128 40% 1 24.10.2026 -
Franco Cristaldo Talleres Активный 131 / 128 40% 1 22.10.2026 -
Nicolò Tresoldi Club Brugge Активный 118 / 118 40% 2 20.10.2026 -
Alexander Aravena Portland Timbers Активный 112 / 129 40% 2 18.10.2026 -
Reda Khadra Qarabag Активный 126 / 142 40% 1 18.10.2026 -
Mohamed-Ali Cho Hull City Активный 121 / 137 40% 2 16.10.2026 -
Tomás Molina Argentinos Juniors Активный 126 / 125 40% 4 13.10.2026 -
Domagoj Drožđek Tractor Активный 114 / 134 40% 1 13.10.2026 -
Zian Flemming Ipswich Town Активный 125 / 134 40% 1 11.10.2026 -
Allan Saint-Maximin Charlotte Football Club Активный 135 / 142 40% 1 11.10.2026 -
Majid Jahanbakhsh Rah Ahan Активный 123 / 123 40% 1 11.10.2026 -
Juninho Pumas UNAM Активный 131 / 132 40% 2 08.10.2026 -
Morgan Guilavogui Real Salt Lake Активный 128 / 118 40% 2 07.10.2026 -
Myrto Uzuni Austin FC Активный 145 / 146 40% 4 05.10.2026 -
Dániel Gazdag New England Revolution Активный 143 / 119 40% 1 05.10.2026 -
Josh Sargent Toronto FC Активный 143 / 115 40% 2 04.10.2026 -
Carlos Álvarez Club America Активный 137 / 140 40% 1 01.10.2026 -
Jordan Morris Seattle Sounders Активный 138 / 118 40% 1 29.09.2026 -
Jesus Ferreira Seattle Sounders Активный 135 / 122 40% 1 28.09.2026 -
Timo Werner San Jose Earthquakes Активный 130 / 120 40% 1 27.09.2026 -
Edwuin Cetré Estudiantes Активный 127 / 118 40% 1 27.09.2026 -
Erik Lira Cruz Azul Активный 131 / 128 40% 1 26.09.2026 -
Bryan González Guadalajara Активный 136 / 135 40% 1 25.09.2026 -
Richard Ledezma Guadalajara Активный 138 / 145 40% 1 23.09.2026 -
Ismael Díaz Leon Активный 116 / 136 40% 2 21.09.2026 -
Wessam Abou Ali Columbus Crew Активный 115 / 127 40% 1 21.09.2026 -
Alejandro Zendejas Club America Активный 131 / 128 40% 2 18.09.2026 -
Duncan McGuire Houston Dynamo Активный 121 / 125 40% 1 18.09.2026 -
Sergi Cardona KAA Gent Активный 149 / 143 40% 1 16.09.2026 -
Esteban Obregón Montevideo City Torque Активный 121 / 123 40% 1 15.09.2026 -
Sebastián Córdova Pumas UNAM Активный 140 / 117 40% 1 13.09.2026 -
Enzo Cabrera Danubio Активный 104 / 103 40% 1 10.09.2026 -
Agustín Paz Progreso Активный 112 / 116 40% 1 10.09.2026 -
Rafael Santos Borré River Plate Активный 124 / 133 40% 1 10.09.2026 -
Pep Biel Charlotte Football Club Активный 136 / 129 40% 1 07.09.2026 -
Federico Viñas Toluca Активный 111 / 125 40% 1 07.09.2026 -
Steven Bergwijn Al-Ittihad Активный 161 / 131 40% 1 02.09.2026 -
Kelvin Yeboah Minnesota United FC Активный 110 / 117 40% 1 31.08.2026 -
Maurits Kjærgaard Red Bull Salzburg Активный 138 / 132 40% 1 28.08.2026 -
Hugo Cuypers Monterrey Активный 142 / 120 40% 1 22.08.2026 -
Juan Dinenno Pumas UNAM Активный 126 / 136 40% 1 18.08.2026 -
Álex Arce Independiente Rivadavia Активный 121 / 135 40% 1 17.08.2026 -
Milton Giménez Boca Juniors Активный 133 / 123 40% 1 15.08.2026 -
Dejan Joveljić Seattle Sounders Активный 115 / 135 40% 1 14.08.2026 -
Aune Heggebø West Bromwich Albion Активный 121 / 141 40% 1 05.08.2026 -
Agustín Palavecino Cruz Azul Активный 143 / 133 40% 1 03.08.2026 -